Florence, MT

12:00 PM MDT on July 28, 2015 (GMT -0600)
MPG Ranch - South Baldy Ridge | | Change Station
CLOSE
Current Station
Personal Weather Station
Location: Florence, MT
Elevation: 4911 ft
Nearby Weather Stations

Elev 4911 ft 46.69 °N, 113.99 °W | Updated 5 minutes ago

Partly Cloudy
Partly Cloudy
58.2 °F
Feels Like 58.2 °F
N
3.0
Wind Variable Wind from SSE
Gusts 10.0 mph

Today
High -- | Low -- °F
--% Chance of Precip.
Yesterday
High -- | Low -- °F
Precip. -- in
6:11 AM 9:12 PM
Waxing Gibbous, 91% visible
Pressure 30.24 in
Visibility 10.0 miles
Clouds Clear
Dew Point 43 °F
Humidity 58%
Rainfall 0.00 in
Snow Depth Not available.
UV 9 out of 12
Pollen 4.20 out of 12
Air Quality Not available.
Flu Activity Not available.
METAR KMSO 281753Z AUTO VRB05KT 10SM CLR 17/08 A3025 RMK AO2 SLP240 T01670078 10167 20089 58004 TSNO

More Conditions Fewer Conditions

Pressure 30.24 in
Visibility 10.0 miles
Clouds Clear
Dew Point 43 °F
Humidity 58%
Rainfall 0.00 in
Snow Depth Not available.
UV 9 out of 12
Pollen 4.20 out of 12
Air Quality Not available.
Flu Activity Not available.
METAR KMSO 281753Z AUTO VRB05KT 10SM CLR 17/08 A3025 RMK AO2 SLP240 T01670078 10167 20089 58004 TSNO

More Conditions Fewer Conditions

10-Day Weather Forecast

×

Almanac

Astronomy

Jul. 28, 2015 Rise Set
Actual Time
Civil Twilight
Nautical Twilight
Astronomical Twilight
Moon
Length of Visible Light
Length of Day
Tomorrow will be .
, % of the Moon is Illuminated

Today's Extremes

State Highs State Lows

Community

WunderPhotos

Upload Photos

1,841,905 photos uploaded!

WunderBlogs® & News

Nearby

Air Quality

  Air Quality AQ Index Pollutant
Not available.

Snow Depth

Station Depth Elevation

Earthquake Activity

City Distance Mag. Time & Date
Minimum magnitude displayed is 2.5.

Coastal Water Temperatures

Place Temperature

Stations

Nearby Weather Stations

Station Location Temp. Windchill Dew Point Humidity Wind Precip. Elev Updated Type